Minto, Alaska
Current Conditions -  °F | °C
As of 2:53 AM on Saturday 20 Dec 2014 (Local Time) from PANN Reporting Station
Clear Clear  
Wind Chill: -13°   Ceiling: Unl
Heat Index: -13°   Visibility: 10mi
Dew Point: -19°   Wind: 0mph
Humidity: 75%   Direction: NA
Pressure: 29.21"   Gusts: NA
Location:  65.03°N, 149.53°W
Report Text: PANN 201153Z AUTO 00000KT 10SM CLR M25/M28 A2921 RMK AO2 SLP907 I6000 T12501283 11244 21267 58005 TSNO
Loading
Personal Weather Stations






























Interactive Weather Map New forecast layout! Learn more

10-Day Weather Forecast

Advertisements
Track Severe Weather on mobile